createdAt,value
2023-11-02T00:03:11.927Z,99813.63
2023-11-02T00:06:38.445Z,99806.28
2023-11-02T00:10:02.385Z,99793.41
2023-11-02T00:13:28.224Z,99799.53
2023-11-02T00:16:50.328Z,99794.00
2023-11-02T00:20:24.084Z,99781.81
2023-11-02T00:23:48.162Z,99778.13
2023-11-02T00:27:12.255Z,99774.94
2023-11-02T00:30:37.715Z,99779.22
2023-11-02T00:33:59.678Z,99784.50
2023-11-02T00:37:21.538Z,99789.59
2023-11-02T00:40:43.538Z,99773.25
2023-11-02T00:44:07.758Z,99759.13
2023-11-02T00:47:29.157Z,99756.47
2023-11-02T00:51:18.500Z,99765.13
2023-11-02T00:54:59.782Z,99772.25
2023-11-02T00:58:31.397Z,99763.13
2023-11-02T01:01:54.554Z,99758.50
2023-11-02T01:05:25.635Z,99740.53
2023-11-02T01:08:55.118Z,99740.53
2023-11-02T01:12:25.594Z,99737.88
2023-11-02T01:16:03.499Z,99741.22
2023-11-02T01:19:54.946Z,99746.84
2023-11-02T01:23:18.850Z,99755.66
2023-11-02T01:27:01.154Z,99747.66
2023-11-02T01:31:05.354Z,99734.53
2023-11-02T01:34:30.441Z,99727.22
2023-11-02T01:37:53.637Z,99728.88
2023-11-02T01:41:20.016Z,99723.38
2023-11-02T01:44:48.062Z,99733.56
2023-11-02T01:48:20.155Z,99726.13
2023-11-02T01:51:53.269Z,99709.97
2023-11-02T01:55:28.991Z,99708.50
2023-11-02T01:59:05.656Z,99696.69
2023-11-02T02:02:36.121Z,99695.00
2023-11-02T02:06:07.048Z,99683.38
2023-11-02T02:09:43.089Z,99676.22
2023-11-02T02:13:22.955Z,99673.69
2023-11-02T02:16:53.320Z,99683.53
2023-11-02T02:20:21.310Z,99697.84
2023-11-02T02:23:49.999Z,99687.50
2023-11-02T02:27:43.883Z,99681.97
2023-11-02T02:31:39.461Z,99656.97
2023-11-02T02:35:09.206Z,99658.63
2023-11-02T02:38:41.866Z,99645.56
2023-11-02T02:42:05.947Z,99659.00
2023-11-02T02:45:30.933Z,99677.00
2023-11-02T02:48:52.845Z,99659.59
2023-11-02T02:52:20.919Z,99657.22
2023-11-02T02:55:45.761Z,99658.44
2023-11-02T02:59:11.166Z,99654.06
2023-11-02T03:02:34.551Z,99646.00
2023-11-02T03:05:58.324Z,99638.50
2023-11-02T03:09:23.657Z,99637.13
2023-11-02T03:12:48.493Z,99636.59
2023-11-02T03:16:14.874Z,99629.72
2023-11-02T03:19:46.345Z,99621.63
2023-11-02T03:23:19.336Z,99630.66
2023-11-02T03:26:51.654Z,99623.91
2023-11-02T03:30:21.598Z,99617.09
2023-11-02T03:34:00.084Z,99604.03
2023-11-02T03:37:30.490Z,99604.56
2023-11-02T03:41:06.713Z,99590.28
2023-11-02T03:44:41.273Z,99570.50
2023-11-02T03:48:15.157Z,99558.72
2023-11-02T03:51:45.537Z,99555.22
2023-11-02T03:55:21.210Z,99554.22
2023-11-02T03:58:56.894Z,99566.72
2023-11-02T04:02:30.903Z,99571.34
2023-11-02T04:05:59.180Z,99571.66
2023-11-02T04:09:23.206Z,99559.38
2023-11-02T04:12:54.289Z,99553.19
2023-11-02T04:16:15.969Z,99552.53
2023-11-02T04:19:38.850Z,99559.69
2023-11-02T04:23:00.449Z,99559.00
2023-11-02T04:26:22.093Z,99545.72
2023-11-02T04:29:43.560Z,99548.66
2023-11-02T04:33:05.374Z,99549.63
2023-11-02T04:36:28.746Z,99547.59
2023-11-02T04:39:50.767Z,99546.94
2023-11-02T04:43:12.593Z,99538.28
2023-11-02T04:46:34.431Z,99526.28
2023-11-02T04:49:56.119Z,99519.94
2023-11-02T04:53:19.725Z,99515.75
2023-11-02T04:56:41.190Z,99504.59
2023-11-02T05:00:05.020Z,99513.72
2023-11-02T05:03:27.482Z,99494.88
2023-11-02T05:06:49.360Z,99489.88
2023-11-02T05:10:12.697Z,99500.00
2023-11-02T05:13:34.256Z,99503.94
2023-11-02T05:16:55.639Z,99487.47
2023-11-02T05:20:17.498Z,99472.81
2023-11-02T05:23:39.039Z,99462.16
2023-11-02T05:27:02.066Z,99458.28
2023-11-02T05:30:23.780Z,99463.34
2023-11-02T05:33:45.862Z,99464.94
2023-11-02T05:37:08.311Z,99454.25
2023-11-02T05:40:30.397Z,99450.69
2023-11-02T05:43:53.105Z,99450.47
2023-11-02T05:47:15.341Z,99451.38
2023-11-02T05:50:40.055Z,99449.19
2023-11-02T05:54:01.730Z,99440.00
2023-11-02T05:57:23.665Z,99428.81
2023-11-02T06:00:46.656Z,99419.75
2023-11-02T06:04:08.239Z,99409.81
2023-11-02T06:07:30.046Z,99414.00
2023-11-02T06:10:51.357Z,99418.53
2023-11-02T06:14:13.179Z,99404.94
2023-11-02T06:17:35.989Z,99406.03
2023-11-02T06:20:57.633Z,99401.22
2023-11-02T06:24:19.036Z,99406.09
2023-11-02T06:27:41.014Z,99410.41
2023-11-02T06:31:02.906Z,99411.63
2023-11-02T06:34:25.885Z,99404.34
2023-11-02T06:37:58.045Z,99394.56
2023-11-02T06:41:19.784Z,99385.16
2023-11-02T06:44:44.615Z,99389.97
2023-11-02T06:48:07.109Z,99379.88
2023-11-02T06:51:30.254Z,99370.16
2023-11-02T06:54:52.040Z,99371.19
2023-11-02T06:58:13.581Z,99367.91
2023-11-02T07:01:36.048Z,99370.09
2023-11-02T07:04:59.292Z,99350.34
2023-11-02T07:08:22.478Z,99352.69
2023-11-02T07:11:44.279Z,99352.38
2023-11-02T07:15:06.574Z,99351.75
2023-11-02T07:18:28.513Z,99350.13
2023-11-02T07:21:50.020Z,99333.53
2023-11-02T07:25:13.276Z,99315.78
2023-11-02T07:28:34.724Z,99305.00
2023-11-02T07:31:56.064Z,99296.06
2023-11-02T07:35:17.523Z,99296.75
2023-11-02T07:38:39.758Z,99294.75
2023-11-02T07:42:03.564Z,99300.72
2023-11-02T07:45:27.384Z,99302.19
2023-11-02T07:48:49.355Z,99296.72
2023-11-02T07:52:11.264Z,99290.22
2023-11-02T07:55:32.619Z,99280.72
2023-11-02T07:58:55.460Z,99279.06
2023-11-02T08:02:17.375Z,99260.78
2023-11-02T08:05:40.403Z,99264.78
2023-11-02T08:09:02.146Z,99268.09
2023-11-02T08:12:23.883Z,99267.09
2023-11-02T08:15:47.075Z,99268.78
2023-11-02T08:19:09.042Z,99262.63
2023-11-02T08:22:32.083Z,99254.34
2023-11-02T08:25:54.110Z,99247.34
2023-11-02T08:29:16.508Z,99237.25
2023-11-02T08:32:39.594Z,99230.78
2023-11-02T08:36:01.220Z,99216.63
2023-11-02T08:39:23.221Z,99204.31
2023-11-02T08:42:45.375Z,99195.00
2023-11-02T08:46:07.496Z,99191.31
2023-11-02T08:49:31.092Z,99179.34
2023-11-02T08:52:52.863Z,99173.28
2023-11-02T08:56:14.831Z,99158.63
2023-11-02T08:59:36.188Z,99150.63
2023-11-02T09:02:57.581Z,99139.28
2023-11-02T09:06:21.633Z,99143.25
2023-11-02T09:09:43.834Z,99139.03
2023-11-02T09:13:05.549Z,99145.16
2023-11-02T09:16:27.638Z,99142.44
2023-11-02T09:19:49.212Z,99127.25
2023-11-02T09:23:12.085Z,99113.38
2023-11-02T09:26:33.876Z,99100.66
2023-11-02T09:29:55.343Z,99096.09
2023-11-02T09:33:17.676Z,99109.50
2023-11-02T09:36:39.775Z,99107.16
2023-11-02T09:40:04.437Z,99100.09
2023-11-02T09:43:27.331Z,99090.53
2023-11-02T09:46:50.684Z,99084.81
2023-11-02T09:50:12.592Z,99087.34
2023-11-02T09:53:34.821Z,99067.28
2023-11-02T09:56:59.191Z,99064.38
2023-11-02T10:00:21.891Z,99054.16
2023-11-02T10:03:44.179Z,99039.84
2023-11-02T10:07:06.565Z,99018.13
2023-11-02T10:10:32.666Z,98983.69
2023-11-02T10:13:57.410Z,98977.22
2023-11-02T10:17:19.693Z,98964.63
2023-11-02T10:20:41.416Z,98963.50
2023-11-02T10:24:04.186Z,98947.72
2023-11-02T10:27:26.194Z,98944.75
2023-11-02T10:30:50.274Z,98947.88
2023-11-02T10:34:12.124Z,98937.91
2023-11-02T10:37:35.527Z,98912.91
2023-11-02T10:40:57.567Z,98886.06
2023-11-02T10:44:19.462Z,98907.13
2023-11-02T10:47:43.820Z,98892.16
2023-11-02T10:51:07.419Z,98913.56
2023-11-02T10:54:47.208Z,98922.28
2023-11-02T10:58:10.079Z,98946.22
2023-11-02T11:01:32.541Z,98943.59
2023-11-02T11:04:58.845Z,98924.13
2023-11-02T11:08:21.621Z,98923.34
2023-11-02T11:11:43.709Z,98910.03
2023-11-02T11:15:07.366Z,98882.88
2023-11-02T11:18:30.118Z,98880.84
2023-11-02T11:21:57.330Z,98904.34
2023-11-02T11:25:19.874Z,98902.91
2023-11-02T11:28:41.739Z,98898.41
2023-11-02T11:32:04.951Z,98899.84
2023-11-02T11:35:26.801Z,98872.69
2023-11-02T11:38:49.749Z,98852.72
2023-11-02T11:42:11.606Z,98854.00
2023-11-02T11:45:34.787Z,98844.56
2023-11-02T11:48:56.419Z,98840.63
2023-11-02T11:52:26.436Z,98837.56
2023-11-02T11:55:51.143Z,98831.00
2023-11-02T11:59:15.060Z,98832.22
2023-11-02T12:02:37.916Z,98826.03
2023-11-02T12:05:59.767Z,98820.50
2023-11-02T12:09:27.702Z,98826.28
2023-11-02T12:12:50.996Z,98814.56
2023-11-02T12:16:12.765Z,98807.97
2023-11-02T12:19:41.563Z,98793.75
2023-11-02T12:23:03.625Z,98781.81
2023-11-02T12:26:27.211Z,98777.28
2023-11-02T12:29:59.933Z,98774.63
2023-11-02T12:33:23.136Z,98777.28
2023-11-02T12:36:46.086Z,98755.66
2023-11-02T12:40:09.299Z,98739.00
2023-11-02T12:43:31.321Z,98725.38
2023-11-02T12:47:07.890Z,98732.81
2023-11-02T12:50:31.801Z,98733.81
2023-11-02T12:53:54.612Z,98748.25
2023-11-02T12:57:17.336Z,98766.97
2023-11-02T13:00:40.219Z,98752.75
2023-11-02T13:04:05.216Z,98754.44
2023-11-02T13:07:28.799Z,98743.31
2023-11-02T13:10:50.832Z,98733.41
2023-11-02T13:14:13.528Z,98745.34
2023-11-02T13:17:34.900Z,98752.75
2023-11-02T13:20:58.921Z,98748.22
2023-11-02T13:24:21.504Z,98741.63
2023-11-02T13:27:43.097Z,98741.63
2023-11-02T13:31:07.478Z,98733.81
2023-11-02T13:34:29.433Z,98731.94
2023-11-02T13:37:52.874Z,98729.69
2023-11-02T13:41:15.161Z,98734.22
2023-11-02T13:44:37.411Z,98721.44
2023-11-02T13:47:59.468Z,98728.84
2023-11-02T13:51:21.442Z,98732.31
2023-11-02T13:54:44.830Z,98733.16
2023-11-02T13:58:06.741Z,98738.28
2023-11-02T14:01:28.836Z,98731.31
2023-11-02T14:04:50.892Z,98725.31
2023-11-02T14:08:13.331Z,98724.72
2023-11-02T14:11:36.729Z,98716.88
2023-11-02T14:14:58.831Z,98726.75
2023-11-02T14:18:20.998Z,98722.19
2023-11-02T14:21:42.627Z,98718.28
2023-11-02T14:25:05.867Z,98720.13
2023-11-02T14:28:29.779Z,98710.47
2023-11-02T14:31:51.310Z,98701.41
2023-11-02T14:35:13.447Z,98701.19
2023-11-02T14:38:35.379Z,98680.59
2023-11-02T14:41:56.740Z,98682.25
2023-11-02T14:45:20.519Z,98679.38
2023-11-02T14:48:42.543Z,98672.19
2023-11-02T14:52:08.011Z,98661.25
2023-11-02T14:55:29.793Z,98656.09
2023-11-02T14:58:51.056Z,98660.81
2023-11-02T15:02:13.955Z,98641.25
2023-11-02T15:05:35.901Z,98645.56
2023-11-02T15:09:05.259Z,98633.63
2023-11-02T15:12:29.499Z,98637.09
2023-11-02T15:15:51.295Z,98630.72
2023-11-02T15:19:14.575Z,98639.53
2023-11-02T15:22:36.874Z,98649.78
2023-11-02T15:25:58.531Z,98649.16
2023-11-02T15:29:19.817Z,98647.91
2023-11-02T15:32:41.875Z,98644.63
2023-11-02T15:36:07.986Z,98639.66
2023-11-02T15:39:31.577Z,98621.16
2023-11-02T15:42:54.529Z,98634.50
2023-11-02T15:46:16.790Z,98645.59
2023-11-02T15:49:41.104Z,98646.00
2023-11-02T15:53:04.387Z,98649.25
2023-11-02T15:56:26.193Z,98646.97
2023-11-02T15:59:47.850Z,98651.50
2023-11-02T16:03:09.602Z,98646.56
2023-11-02T16:06:31.532Z,98643.50
2023-11-02T16:09:54.775Z,98649.03
2023-11-02T16:13:16.323Z,98642.25
2023-11-02T16:16:37.757Z,98639.97
2023-11-02T16:20:01.672Z,98636.28
2023-11-02T16:23:23.811Z,98618.75
2023-11-02T16:26:47.387Z,98616.28
2023-11-02T16:30:10.739Z,98603.31
2023-11-02T16:33:32.691Z,98595.50
2023-11-02T16:36:54.728Z,98586.69
2023-11-02T16:40:16.761Z,98584.00
2023-11-02T16:43:39.641Z,98579.47
2023-11-02T16:47:01.488Z,98578.06
2023-11-02T16:50:22.896Z,98585.66
2023-11-02T16:53:44.722Z,98570.25
2023-11-02T16:57:07.527Z,98573.34
2023-11-02T17:00:30.443Z,98578.06
2023-11-02T17:03:52.152Z,98575.81
2023-11-02T17:07:14.080Z,98572.94
2023-11-02T17:10:36.228Z,98570.50
2023-11-02T17:13:58.546Z,98569.47
2023-11-02T17:17:21.621Z,98583.03
2023-11-02T17:20:43.546Z,98608.72
2023-11-02T17:24:05.699Z,98617.38
2023-11-02T17:27:54.845Z,98614.50
2023-11-02T17:31:16.586Z,98609.34
2023-11-02T17:34:40.315Z,98612.88
2023-11-02T17:38:03.044Z,98611.63
2023-11-02T17:41:24.577Z,98608.97
2023-11-02T17:44:45.912Z,98612.25
2023-11-02T17:48:09.995Z,98620.88
2023-11-02T17:51:33.083Z,98618.22
2023-11-02T17:54:54.695Z,98617.59
2023-11-02T17:58:16.671Z,98608.09
2023-11-02T18:01:38.327Z,98601.75
2023-11-02T18:04:59.716Z,98596.63
2023-11-02T18:08:23.038Z,98597.25
2023-11-02T18:11:44.377Z,98598.44
2023-11-02T18:15:06.673Z,98598.44
2023-11-02T18:18:28.375Z,98598.00
2023-11-02T18:21:50.121Z,98602.72
2023-11-02T18:25:15.578Z,98598.22
2023-11-02T18:28:37.344Z,98600.88
2023-11-02T18:31:58.921Z,98598.22
2023-11-02T18:35:23.357Z,98600.44
2023-11-02T18:38:44.946Z,98589.97
2023-11-02T18:42:08.685Z,98594.28
2023-11-02T18:45:30.567Z,98594.28
2023-11-02T18:48:52.522Z,98591.34
2023-11-02T18:52:15.161Z,98588.88
2023-11-02T18:55:37.538Z,98574.88
2023-11-02T18:59:00.474Z,98586.56
2023-11-02T19:02:22.340Z,98573.81
2023-11-02T19:05:46.563Z,98569.66
2023-11-02T19:09:08.203Z,98576.03
2023-11-02T19:12:29.695Z,98572.50
2023-11-02T19:15:53.325Z,98583.56
2023-11-02T19:19:15.438Z,98583.53
2023-11-02T19:22:36.998Z,98588.22
2023-11-02T19:26:01.025Z,98585.31
2023-11-02T19:29:22.588Z,98582.41
2023-11-02T19:32:45.503Z,98591.78
2023-11-02T19:36:08.296Z,98597.31
2023-11-02T19:39:30.183Z,98579.22
2023-11-02T19:42:52.185Z,98579.22
2023-11-02T19:46:20.485Z,98592.31
2023-11-02T19:49:43.608Z,98605.03
2023-11-02T19:53:05.089Z,98610.53
2023-11-02T19:56:26.638Z,98611.75
2023-11-02T19:59:48.211Z,98621.78
2023-11-02T20:03:11.001Z,98611.47
2023-11-02T20:06:35.353Z,98613.50
2023-11-02T20:09:57.028Z,98600.56
2023-11-02T20:13:19.060Z,98593.19
2023-11-02T20:16:40.676Z,98596.25
2023-11-02T20:20:02.020Z,98592.53
2023-11-02T20:23:25.779Z,98582.25
2023-11-02T20:26:47.312Z,98584.06
2023-11-02T20:30:10.876Z,98571.75
2023-11-02T20:33:33.065Z,98566.81
2023-11-02T20:36:54.545Z,98554.13
2023-11-02T20:40:19.435Z,98537.09
2023-11-02T20:43:41.235Z,98542.81
2023-11-02T20:47:02.635Z,98544.66
2023-11-02T20:50:24.033Z,98550.19
2023-11-02T20:53:45.517Z,98543.59
2023-11-02T20:57:08.726Z,98537.41
2023-11-02T21:00:36.958Z,98543.97
2023-11-02T21:04:06.448Z,98540.28
2023-11-02T21:07:28.464Z,98531.47
2023-11-02T21:10:50.449Z,98528.16
2023-11-02T21:14:13.333Z,98524.22
2023-11-02T21:17:35.198Z,98519.91
2023-11-02T21:20:56.929Z,98513.78
2023-11-02T21:24:18.246Z,98512.09
2023-11-02T21:27:41.904Z,98503.28
2023-11-02T21:31:05.425Z,98495.47
2023-11-02T21:34:27.460Z,98500.81
2023-11-02T21:37:52.206Z,98501.81
2023-11-02T21:41:14.246Z,98505.50
2023-11-02T21:44:36.113Z,98512.88
2023-11-02T21:48:00.280Z,98511.44
2023-11-02T21:51:22.065Z,98506.72
2023-11-02T21:54:43.673Z,98492.38
2023-11-02T21:58:05.400Z,98496.31
2023-11-02T22:01:27.022Z,98485.44
2023-11-02T22:04:50.561Z,98484.63
2023-11-02T22:08:12.737Z,98489.13
2023-11-02T22:11:34.120Z,98498.97
2023-11-02T22:14:55.876Z,98492.81
2023-11-02T22:18:17.601Z,98492.81
2023-11-02T22:21:41.109Z,98475.56
2023-11-02T22:25:03.487Z,98463.63
2023-11-02T22:28:25.175Z,98477.81
2023-11-02T22:31:46.560Z,98460.34
2023-11-02T22:35:09.009Z,98440.88
2023-11-02T22:38:32.346Z,98430.22
2023-11-02T22:41:53.887Z,98425.91
2023-11-02T22:45:15.711Z,98422.03
2023-11-02T22:48:38.391Z,98409.47
2023-11-02T22:52:00.027Z,98401.66
2023-11-02T22:55:23.362Z,98420.53
2023-11-02T22:58:45.342Z,98422.09
2023-11-02T23:02:07.430Z,98429.28
2023-11-02T23:05:29.789Z,98427.81
2023-11-02T23:08:51.729Z,98433.34
2023-11-02T23:12:16.263Z,98407.09
2023-11-02T23:15:38.080Z,98414.63
2023-11-02T23:18:59.828Z,98421.16
2023-11-02T23:22:21.907Z,98415.84
2023-11-02T23:25:43.982Z,98408.84
2023-11-02T23:29:08.844Z,98387.16
2023-11-02T23:32:30.736Z,98391.50
2023-11-02T23:35:52.194Z,98397.47
2023-11-02T23:39:14.083Z,98402.78
2023-11-02T23:42:35.464Z,98409.19
2023-11-02T23:45:58.581Z,98410.44
2023-11-02T23:49:20.279Z,98400.63
2023-11-02T23:52:43.359Z,98394.28
2023-11-02T23:56:05.693Z,98383.63
2023-11-02T23:59:29.019Z,98378.69
